CWYO2: Chewey Road

Data processed at Tue Aug 21 2018 22:22


All information presented herein is the property of the government of the United States of America and may be revised or deleted at any time without prior notice.
Dissemination of this information without the expressed written consent of the Public Affairs Office, Tulsa District U.S. Army Corps of Engineers is strictly prohibited.
These data are gathered electronically and, as presented, have not undergone any form of quality control. These data are not guaranteed to be valid or correct.
Go to home page.
Go to station list.

Upstream stations:

Downstream station:
Previous Day
Next Day
Current Day
    
SHEF ID:       CWYO2     Illinois River at Chewey, OK
STATION TYPE:  

               PRECIP     STAGE  STAGE(2)  RIV-FLOW  BAT-LOAD
                   in        ft        ft       cfs      volt
              Ccp-Rev   Ccp-Rev   Ccp-Rev   Ccp-Rev   Ccp-Rev
(US/Central)
08/21 00:00      0.00      4.86      4.85       708     12.65
08/21 01:00      0.00      4.92      4.90       752     12.60
08/21 02:00      0.00      4.96      4.95       782     12.60
08/21 03:00      0.00      4.99      4.97       805     12.54
08/21 04:00      0.00      4.99      4.97       805     12.54
08/21 05:00      0.00      4.98      4.96       798     12.54
08/21 06:00      0.00      4.96      4.94       782     12.48
08/21 07:00      0.00      4.94      4.93       767     12.48
08/21 08:00      0.00      4.92      4.90       752     12.48
08/21 09:00      0.00      4.88      4.88       723     12.54
08/21 10:00      0.00      4.88      4.86       723     12.71
08/21 11:00      0.00      4.86      4.84       708     13.12
08/21 12:00      0.00      4.84      4.82       694     13.00
08/21 13:00      0.00      4.82      4.80       680     12.95
08/21 14:00      0.00      4.80      4.79       666     12.83
08/21 15:00      0.00      4.78      4.77       652     12.95
08/21 16:00      0.00      4.75      4.75       631     13.30
08/21 17:00      0.00      4.75      4.73       631     12.95
08/21 18:00      0.00      4.73      4.72       618     12.83
08/21 19:00      0.00      4.71      4.70       604     12.77
08/21 20:00      0.00      4.70      4.69       598     12.71
08/21 21:00      0.00      4.68      4.67       585     12.65
08/21 22:00      ----      ----      ----      ----      ----
08/21 23:00      ----      ----      ----      ----      ----